Date,TemperatureHighF,TemperatureAvgF,TemperatureLowF,DewpointHighF,DewpointAvgF,DewpointLowF,HumidityHigh,HumidityAvg,HumidityLow,PressureMaxIn,PressureMinIn,WindSpeedMaxMPH,WindSpeedAvgMPH,GustSpeedMaxMPH,PrecipitationSumIn
2013-9-1,68,59,54,61,54,48,96,83,59,29.91,29.75,22,6,22,0.13
2013-9-2,76,65,54,62,55,49,97,72,48,29.90,29.77,13,2,13,0.01
2013-9-3,81,69,59,55,51,46,77,53,31,29.78,29.71,17,3,17,0.00
2013-9-4,79,65,61,58,50,45,66,58,43,29.81,29.75,5,0,5,0.00
2013-9-5,69,68,66,40,40,39,39,37,35,29.80,29.78,14,7,14,0.00
2013-9-6,81,70,63,49,40,36,43,34,25,29.78,29.74,12,1,12,0.00
2013-9-7,70,67,66,41,39,37,40,36,31,29.72,29.70,13,6,13,0.00
2013-9-8,80,70,59,50,44,39,52,40,27,29.71,29.51,19,3,19,0.00
2013-9-9,73,56,52,53,52,42,97,87,34,29.68,29.54,23,12,23,0.01
2013-9-10,66,56,51,56,53,50,98,88,60,29.92,29.67,15,5,15,0.23
2013-9-11,62,56,53,56,54,52,99,94,78,29.96,29.87,12,4,15,0.24
2013-9-12,62,55,52,59,54,52,99,97,87,30.00,29.89,15,5,15,1.60
2013-9-13,62,55,52,57,54,51,99,95,80,29.90,29.69,19,7,24,0.98
2013-9-14,70,57,48,57,51,46,99,81,47,29.74,29.61,14,2,14,0.04
2013-9-15,57,51,49,54,50,47,99,96,86,30.06,29.74,17,6,17,0.14
2013-9-16,58,51,48,56,51,47,99,98,89,30.05,29.91,15,3,15,0.26
2013-9-17,74,61,48,52,47,38,99,65,30,29.93,29.60,16,2,16,0.00
2013-9-18,75,62,53,51,45,40,78,53,32,29.62,29.50,23,2,25,0.03
2013-9-19,57,51,44,47,42,32,86,72,57,29.99,29.58,20,5,20,0.00
2013-9-20,61,51,45,51,46,41,98,83,65,30.00,29.87,15,4,15,0.00
2013-9-21,72,56,46,46,42,35,97,64,29,29.90,29.59,12,1,12,0.01
2013-9-22,50,48,46,46,45,44,95,88,83,29.29,29.26,21,4,21,0.23
2013-9-23,59,48,39,44,36,26,97,67,36,29.95,29.20,25,7,25,0.49
2013-9-24,62,50,41,37,30,20,60,47,31,29.99,29.73,22,4,22,0.00
2013-9-25,73,59,47,37,30,20,65,34,18,29.73,29.30,23,3,23,0.00
2013-9-26,68,58,41,46,33,20,88,43,24,29.44,29.30,22,4,22,0.00
2013-9-27,63,49,33,46,36,28,98,67,35,29.79,29.40,24,6,24,0.00
2013-9-28,33,32,31,32,29,26,97,87,78,29.87,29.79,9,1,9,0.00
2013-9-30,61,60,58,41,39,35,50,45,38,29.59,29.55,7,1,7,0.00